Awans, Belgium
Current Conditions -  °F | °C
As of 3:50 AM on Wednesday 22 Oct 2014 (Local Time) from EBLG Reporting Station
Rain Showers Rain Showers  
Wind Chill: 36°   Ceiling: 1600
Heat Index: 43°   Visibility: 2.8mi
Dew Point: 39°   Wind: 14mph
Humidity: 87%   Direction: 280°W
Pressure: 30"   Gusts: NA
Location:  50.67°N, 5.46°E
Report Text: EBLG 220150Z 28012KT 4500 SHRA FEW006 BKN016TCU BKN023 06/04 Q1016 TEMPO 28018G28KT 4000 SHRA
Loading
Personal Weather Stations






























Interactive Weather Map New forecast layout! Learn more

10-Day Weather Forecast

Advertisements
Track Severe Weather on mobile